sensor_id;sensor_type;location;lat;lon;timestamp;P1;durP1;ratioP1;P2;durP2;ratioP2
20122;SDS011;10222;50.848;4.336;2023-05-21T00:01:16;2.50;;;1.70;;
20122;SDS011;10222;50.848;4.336;2023-05-21T00:03:43;1.57;;;1.37;;
20122;SDS011;10222;50.848;4.336;2023-05-21T00:06:13;2.80;;;1.53;;
20122;SDS011;10222;50.848;4.336;2023-05-21T00:08:43;2.60;;;1.77;;
20122;SDS011;10222;50.848;4.336;2023-05-21T00:11:12;1.83;;;1.63;;
20122;SDS011;10222;50.848;4.336;2023-05-21T00:13:39;2.20;;;1.60;;
20122;SDS011;10222;50.848;4.336;2023-05-21T00:16:05;3.07;;;1.80;;
20122;SDS011;10222;50.848;4.336;2023-05-21T00:18:31;2.63;;;1.63;;
20122;SDS011;10222;50.848;4.336;2023-05-21T00:20:59;3.60;;;1.70;;
20122;SDS011;10222;50.848;4.336;2023-05-21T00:23:26;3.30;;;1.60;;
20122;SDS011;10222;50.848;4.336;2023-05-21T00:25:54;2.97;;;1.93;;
20122;SDS011;10222;50.848;4.336;2023-05-21T00:28:22;3.53;;;1.57;;
20122;SDS011;10222;50.848;4.336;2023-05-21T00:30:54;4.33;;;1.43;;
20122;SDS011;10222;50.848;4.336;2023-05-21T00:33:21;2.67;;;1.80;;
20122;SDS011;10222;50.848;4.336;2023-05-21T00:35:51;2.27;;;1.50;;
20122;SDS011;10222;50.848;4.336;2023-05-21T00:38:17;2.33;;;1.70;;
20122;SDS011;10222;50.848;4.336;2023-05-21T00:40:44;6.30;;;2.30;;
20122;SDS011;10222;50.848;4.336;2023-05-21T00:43:11;4.13;;;1.60;;
20122;SDS011;10222;50.848;4.336;2023-05-21T00:45:39;2.57;;;1.70;;
20122;SDS011;10222;50.848;4.336;2023-05-21T00:48:07;2.43;;;1.47;;
20122;SDS011;10222;50.848;4.336;2023-05-21T00:50:35;2.97;;;1.60;;
20122;SDS011;10222;50.848;4.336;2023-05-21T00:53:07;2.20;;;1.57;;
20122;SDS011;10222;50.848;4.336;2023-05-21T00:55:38;2.33;;;1.80;;
20122;SDS011;10222;50.848;4.336;2023-05-21T00:58:06;2.93;;;1.77;;
20122;SDS011;10222;50.848;4.336;2023-05-21T01:00:33;2.70;;;1.57;;
20122;SDS011;10222;50.848;4.336;2023-05-21T01:03:00;2.10;;;1.57;;
20122;SDS011;10222;50.848;4.336;2023-05-21T01:05:28;3.70;;;2.33;;
20122;SDS011;10222;50.848;4.336;2023-05-21T01:07:54;2.53;;;1.60;;
20122;SDS011;10222;50.848;4.336;2023-05-21T01:10:28;3.00;;;1.80;;
20122;SDS011;10222;50.848;4.336;2023-05-21T01:12:56;2.03;;;1.67;;
20122;SDS011;10222;50.848;4.336;2023-05-21T01:15:23;4.07;;;2.30;;
20122;SDS011;10222;50.848;4.336;2023-05-21T01:17:49;2.23;;;2.00;;
20122;SDS011;10222;50.848;4.336;2023-05-21T01:20:17;1.60;;;1.50;;
20122;SDS011;10222;50.848;4.336;2023-05-21T01:22:51;3.00;;;1.73;;
20122;SDS011;10222;50.848;4.336;2023-05-21T01:25:17;2.60;;;1.70;;
20122;SDS011;10222;50.848;4.336;2023-05-21T01:27:44;4.83;;;2.40;;
20122;SDS011;10222;50.848;4.336;2023-05-21T01:30:10;2.93;;;1.67;;
20122;SDS011;10222;50.848;4.336;2023-05-21T01:35:13;2.67;;;1.87;;
20122;SDS011;10222;50.848;4.336;2023-05-21T01:37:47;2.00;;;1.70;;
20122;SDS011;10222;50.848;4.336;2023-05-21T01:42:42;2.10;;;1.77;;
20122;SDS011;10222;50.848;4.336;2023-05-21T01:45:10;2.33;;;1.90;;
20122;SDS011;10222;50.848;4.336;2023-05-21T01:47:37;3.03;;;2.30;;
20122;SDS011;10222;50.848;4.336;2023-05-21T01:50:04;3.50;;;1.97;;
20122;SDS011;10222;50.848;4.336;2023-05-21T01:52:31;2.93;;;2.20;;
20122;SDS011;10222;50.848;4.336;2023-05-21T01:54:59;3.07;;;2.30;;
20122;SDS011;10222;50.848;4.336;2023-05-21T01:57:27;3.37;;;2.03;;
20122;SDS011;10222;50.848;4.336;2023-05-21T01:59:53;3.30;;;2.10;;
20122;SDS011;10222;50.848;4.336;2023-05-21T02:02:21;3.80;;;2.57;;
20122;SDS011;10222;50.848;4.336;2023-05-21T02:04:47;3.33;;;2.20;;
20122;SDS011;10222;50.848;4.336;2023-05-21T02:07:16;3.70;;;2.50;;
20122;SDS011;10222;50.848;4.336;2023-05-21T02:09:43;3.97;;;2.07;;
20122;SDS011;10222;50.848;4.336;2023-05-21T02:14:38;3.63;;;2.23;;
20122;SDS011;10222;50.848;4.336;2023-05-21T02:17:05;4.40;;;2.40;;
20122;SDS011;10222;50.848;4.336;2023-05-21T02:19:32;2.93;;;2.27;;
20122;SDS011;10222;50.848;4.336;2023-05-21T02:21:58;3.60;;;2.43;;
20122;SDS011;10222;50.848;4.336;2023-05-21T02:24:25;4.97;;;1.93;;
20122;SDS011;10222;50.848;4.336;2023-05-21T02:26:52;3.23;;;2.40;;
20122;SDS011;10222;50.848;4.336;2023-05-21T02:29:19;3.00;;;2.17;;
20122;SDS011;10222;50.848;4.336;2023-05-21T02:31:47;4.43;;;2.07;;
20122;SDS011;10222;50.848;4.336;2023-05-21T02:34:18;4.03;;;2.20;;
20122;SDS011;10222;50.848;4.336;2023-05-21T02:36:45;6.57;;;2.67;;
20122;SDS011;10222;50.848;4.336;2023-05-21T02:39:22;5.00;;;2.40;;
20122;SDS011;10222;50.848;4.336;2023-05-21T02:41:49;2.60;;;2.07;;
20122;SDS011;10222;50.848;4.336;2023-05-21T02:44:15;3.77;;;2.50;;
20122;SDS011;10222;50.848;4.336;2023-05-21T02:46:43;3.03;;;2.40;;
20122;SDS011;10222;50.848;4.336;2023-05-21T02:49:10;2.97;;;2.20;;
20122;SDS011;10222;50.848;4.336;2023-05-21T02:51:37;4.03;;;2.40;;
20122;SDS011;10222;50.848;4.336;2023-05-21T02:54:05;3.47;;;2.40;;
20122;SDS011;10222;50.848;4.336;2023-05-21T02:56:32;4.47;;;2.50;;
20122;SDS011;10222;50.848;4.336;2023-05-21T02:58:58;3.80;;;2.40;;
20122;SDS011;10222;50.848;4.336;2023-05-21T03:01:25;13.43;;;3.30;;
20122;SDS011;10222;50.848;4.336;2023-05-21T03:03:52;5.77;;;2.40;;
20122;SDS011;10222;50.848;4.336;2023-05-21T03:06:19;3.43;;;2.07;;
20122;SDS011;10222;50.848;4.336;2023-05-21T03:08:47;3.57;;;2.93;;
20122;SDS011;10222;50.848;4.336;2023-05-21T03:11:14;3.57;;;2.20;;
20122;SDS011;10222;50.848;4.336;2023-05-21T03:13:40;3.07;;;2.20;;
20122;SDS011;10222;50.848;4.336;2023-05-21T03:16:07;3.27;;;2.30;;
20122;SDS011;10222;50.848;4.336;2023-05-21T03:18:34;10.00;;;2.80;;
20122;SDS011;10222;50.848;4.336;2023-05-21T03:21:02;3.97;;;2.57;;
20122;SDS011;10222;50.848;4.336;2023-05-21T03:23:30;4.03;;;2.57;;
20122;SDS011;10222;50.848;4.336;2023-05-21T03:25:57;5.40;;;2.73;;
20122;SDS011;10222;50.848;4.336;2023-05-21T03:28:24;6.63;;;3.00;;
20122;SDS011;10222;50.848;4.336;2023-05-21T03:30:51;4.67;;;2.93;;
20122;SDS011;10222;50.848;4.336;2023-05-21T03:33:18;3.70;;;2.43;;
20122;SDS011;10222;50.848;4.336;2023-05-21T03:35:44;3.87;;;2.70;;
20122;SDS011;10222;50.848;4.336;2023-05-21T03:38:11;4.93;;;2.80;;
20122;SDS011;10222;50.848;4.336;2023-05-21T03:40:37;4.30;;;3.10;;
20122;SDS011;10222;50.848;4.336;2023-05-21T03:43:03;6.17;;;3.37;;
20122;SDS011;10222;50.848;4.336;2023-05-21T03:45:29;4.60;;;2.83;;
20122;SDS011;10222;50.848;4.336;2023-05-21T03:47:56;3.77;;;2.80;;
20122;SDS011;10222;50.848;4.336;2023-05-21T03:52:51;5.03;;;3.00;;
20122;SDS011;10222;50.848;4.336;2023-05-21T03:55:18;3.80;;;2.53;;
20122;SDS011;10222;50.848;4.336;2023-05-21T03:57:47;4.97;;;2.80;;
20122;SDS011;10222;50.848;4.336;2023-05-21T04:00:13;3.80;;;2.60;;
20122;SDS011;10222;50.848;4.336;2023-05-21T04:02:39;3.77;;;2.87;;
20122;SDS011;10222;50.848;4.336;2023-05-21T04:05:05;4.40;;;2.77;;
20122;SDS011;10222;50.848;4.336;2023-05-21T04:07:31;4.10;;;2.70;;
20122;SDS011;10222;50.848;4.336;2023-05-21T04:09:57;3.97;;;2.77;;
20122;SDS011;10222;50.848;4.336;2023-05-21T04:12:23;4.03;;;2.97;;
20122;SDS011;10222;50.848;4.336;2023-05-21T04:14:50;7.13;;;3.40;;
20122;SDS011;10222;50.848;4.336;2023-05-21T04:17:16;4.73;;;2.97;;
20122;SDS011;10222;50.848;4.336;2023-05-21T04:19:43;6.40;;;2.77;;
20122;SDS011;10222;50.848;4.336;2023-05-21T04:22:10;4.10;;;2.30;;
20122;SDS011;10222;50.848;4.336;2023-05-21T04:27:05;4.23;;;2.43;;
20122;SDS011;10222;50.848;4.336;2023-05-21T04:29:34;6.13;;;3.40;;
20122;SDS011;10222;50.848;4.336;2023-05-21T04:32:03;4.67;;;2.90;;
20122;SDS011;10222;50.848;4.336;2023-05-21T04:34:30;4.57;;;3.00;;
20122;SDS011;10222;50.848;4.336;2023-05-21T04:36:57;6.40;;;3.40;;
20122;SDS011;10222;50.848;4.336;2023-05-21T04:39:24;4.33;;;3.30;;
20122;SDS011;10222;50.848;4.336;2023-05-21T04:41:53;3.90;;;2.50;;
20122;SDS011;10222;50.848;4.336;2023-05-21T04:44:21;4.70;;;3.00;;
20122;SDS011;10222;50.848;4.336;2023-05-21T04:46:48;5.37;;;3.30;;
20122;SDS011;10222;50.848;4.336;2023-05-21T04:49:15;5.77;;;3.20;;
20122;SDS011;10222;50.848;4.336;2023-05-21T04:51:47;4.40;;;2.80;;
20122;SDS011;10222;50.848;4.336;2023-05-21T04:54:15;4.40;;;3.13;;
20122;SDS011;10222;50.848;4.336;2023-05-21T04:56:41;3.07;;;2.50;;
20122;SDS011;10222;50.848;4.336;2023-05-21T04:59:09;7.30;;;3.27;;
20122;SDS011;10222;50.848;4.336;2023-05-21T05:01:36;5.60;;;3.43;;
20122;SDS011;10222;50.848;4.336;2023-05-21T05:04:04;6.77;;;2.90;;
20122;SDS011;10222;50.848;4.336;2023-05-21T05:06:31;5.53;;;3.17;;
20122;SDS011;10222;50.848;4.336;2023-05-21T05:08:57;4.47;;;2.93;;
20122;SDS011;10222;50.848;4.336;2023-05-21T05:11:23;7.37;;;3.40;;
20122;SDS011;10222;50.848;4.336;2023-05-21T05:13:51;4.87;;;2.93;;
20122;SDS011;10222;50.848;4.336;2023-05-21T05:16:18;5.33;;;3.00;;
20122;SDS011;10222;50.848;4.336;2023-05-21T05:18:51;5.53;;;3.00;;
20122;SDS011;10222;50.848;4.336;2023-05-21T05:21:19;7.23;;;3.40;;
20122;SDS011;10222;50.848;4.336;2023-05-21T05:23:46;5.07;;;3.07;;
20122;SDS011;10222;50.848;4.336;2023-05-21T05:26:12;4.07;;;2.90;;
20122;SDS011;10222;50.848;4.336;2023-05-21T05:28:38;5.20;;;3.57;;
20122;SDS011;10222;50.848;4.336;2023-05-21T05:31:05;4.40;;;3.10;;
20122;SDS011;10222;50.848;4.336;2023-05-21T05:33:33;4.43;;;3.10;;
20122;SDS011;10222;50.848;4.336;2023-05-21T05:35:59;6.67;;;3.17;;
20122;SDS011;10222;50.848;4.336;2023-05-21T05:38:26;4.13;;;2.93;;
20122;SDS011;10222;50.848;4.336;2023-05-21T05:40:53;5.87;;;3.07;;
20122;SDS011;10222;50.848;4.336;2023-05-21T05:43:21;4.53;;;2.97;;
20122;SDS011;10222;50.848;4.336;2023-05-21T05:45:48;3.33;;;2.43;;
20122;SDS011;10222;50.848;4.336;2023-05-21T05:48:15;3.37;;;2.53;;
20122;SDS011;10222;50.848;4.336;2023-05-21T05:50:42;5.10;;;3.03;;
20122;SDS011;10222;50.848;4.336;2023-05-21T05:53:11;3.67;;;2.83;;
20122;SDS011;10222;50.848;4.336;2023-05-21T05:55:39;5.73;;;3.17;;
20122;SDS011;10222;50.848;4.336;2023-05-21T05:58:05;5.40;;;2.77;;
20122;SDS011;10222;50.848;4.336;2023-05-21T06:00:34;4.73;;;2.90;;
20122;SDS011;10222;50.848;4.336;2023-05-21T06:03:01;4.60;;;2.80;;
20122;SDS011;10222;50.848;4.336;2023-05-21T06:05:28;4.37;;;2.83;;
20122;SDS011;10222;50.848;4.336;2023-05-21T06:07:55;3.77;;;2.67;;
20122;SDS011;10222;50.848;4.336;2023-05-21T06:10:22;3.93;;;2.87;;
20122;SDS011;10222;50.848;4.336;2023-05-21T06:12:48;6.13;;;3.20;;
20122;SDS011;10222;50.848;4.336;2023-05-21T06:15:15;4.90;;;3.20;;
20122;SDS011;10222;50.848;4.336;2023-05-21T06:17:44;4.87;;;3.33;;
20122;SDS011;10222;50.848;4.336;2023-05-21T06:20:10;5.27;;;3.27;;
20122;SDS011;10222;50.848;4.336;2023-05-21T06:22:37;5.87;;;3.43;;
20122;SDS011;10222;50.848;4.336;2023-05-21T06:25:03;6.13;;;3.40;;
20122;SDS011;10222;50.848;4.336;2023-05-21T06:27:31;5.07;;;2.93;;
20122;SDS011;10222;50.848;4.336;2023-05-21T06:29:57;4.93;;;2.80;;
20122;SDS011;10222;50.848;4.336;2023-05-21T06:32:25;6.80;;;3.30;;
20122;SDS011;10222;50.848;4.336;2023-05-21T06:34:51;3.77;;;3.07;;
20122;SDS011;10222;50.848;4.336;2023-05-21T06:37:19;4.40;;;3.27;;
20122;SDS011;10222;50.848;4.336;2023-05-21T06:39:46;3.93;;;3.20;;
20122;SDS011;10222;50.848;4.336;2023-05-21T06:42:12;4.23;;;3.40;;
20122;SDS011;10222;50.848;4.336;2023-05-21T06:44:39;4.63;;;2.80;;
20122;SDS011;10222;50.848;4.336;2023-05-21T06:47:06;5.13;;;3.70;;
20122;SDS011;10222;50.848;4.336;2023-05-21T06:49:33;3.93;;;3.23;;
20122;SDS011;10222;50.848;4.336;2023-05-21T06:51:59;7.53;;;4.23;;
20122;SDS011;10222;50.848;4.336;2023-05-21T06:54:26;7.00;;;3.63;;
20122;SDS011;10222;50.848;4.336;2023-05-21T06:56:52;5.53;;;3.57;;
20122;SDS011;10222;50.848;4.336;2023-05-21T06:59:21;4.83;;;3.07;;
20122;SDS011;10222;50.848;4.336;2023-05-21T07:01:48;5.23;;;3.67;;
20122;SDS011;10222;50.848;4.336;2023-05-21T07:04:14;4.73;;;3.33;;
20122;SDS011;10222;50.848;4.336;2023-05-21T07:06:41;6.10;;;3.70;;
20122;SDS011;10222;50.848;4.336;2023-05-21T07:09:08;5.97;;;4.10;;
20122;SDS011;10222;50.848;4.336;2023-05-21T07:11:35;5.07;;;3.87;;
20122;SDS011;10222;50.848;4.336;2023-05-21T07:14:02;4.40;;;3.30;;
20122;SDS011;10222;50.848;4.336;2023-05-21T07:18:58;5.73;;;3.90;;
20122;SDS011;10222;50.848;4.336;2023-05-21T07:21:26;5.80;;;3.80;;
20122;SDS011;10222;50.848;4.336;2023-05-21T07:23:52;6.23;;;4.13;;
20122;SDS011;10222;50.848;4.336;2023-05-21T07:26:18;4.97;;;3.67;;
20122;SDS011;10222;50.848;4.336;2023-05-21T07:28:46;5.77;;;3.80;;
20122;SDS011;10222;50.848;4.336;2023-05-21T07:31:13;6.37;;;4.23;;
20122;SDS011;10222;50.848;4.336;2023-05-21T07:33:40;8.47;;;4.07;;
20122;SDS011;10222;50.848;4.336;2023-05-21T07:36:08;6.73;;;3.70;;
20122;SDS011;10222;50.848;4.336;2023-05-21T07:38:35;6.70;;;3.83;;
20122;SDS011;10222;50.848;4.336;2023-05-21T07:41:02;4.60;;;3.27;;
20122;SDS011;10222;50.848;4.336;2023-05-21T07:43:31;6.37;;;3.80;;
20122;SDS011;10222;50.848;4.336;2023-05-21T07:45:57;5.77;;;3.77;;
20122;SDS011;10222;50.848;4.336;2023-05-21T07:50:52;5.47;;;3.97;;
20122;SDS011;10222;50.848;4.336;2023-05-21T07:53:19;4.57;;;3.37;;
20122;SDS011;10222;50.848;4.336;2023-05-21T07:55:46;5.67;;;3.57;;
20122;SDS011;10222;50.848;4.336;2023-05-21T07:58:16;4.70;;;3.53;;
20122;SDS011;10222;50.848;4.336;2023-05-21T08:00:46;8.03;;;4.20;;
20122;SDS011;10222;50.848;4.336;2023-05-21T08:03:12;5.83;;;3.90;;
20122;SDS011;10222;50.848;4.336;2023-05-21T08:05:40;6.00;;;3.80;;
20122;SDS011;10222;50.848;4.336;2023-05-21T08:08:08;6.23;;;3.67;;
20122;SDS011;10222;50.848;4.336;2023-05-21T08:10:34;7.53;;;3.80;;
20122;SDS011;10222;50.848;4.336;2023-05-21T08:13:02;10.03;;;4.00;;
20122;SDS011;10222;50.848;4.336;2023-05-21T08:15:28;5.03;;;3.73;;
20122;SDS011;10222;50.848;4.336;2023-05-21T08:17:55;6.30;;;3.90;;
20122;SDS011;10222;50.848;4.336;2023-05-21T08:20:21;6.37;;;3.77;;
20122;SDS011;10222;50.848;4.336;2023-05-21T08:22:47;5.67;;;3.97;;
20122;SDS011;10222;50.848;4.336;2023-05-21T08:25:14;5.97;;;3.60;;
20122;SDS011;10222;50.848;4.336;2023-05-21T08:27:40;6.57;;;4.00;;
20122;SDS011;10222;50.848;4.336;2023-05-21T08:30:06;6.20;;;4.10;;
20122;SDS011;10222;50.848;4.336;2023-05-21T08:32:35;6.70;;;4.27;;
20122;SDS011;10222;50.848;4.336;2023-05-21T08:35:01;5.50;;;3.63;;
20122;SDS011;10222;50.848;4.336;2023-05-21T08:37:29;5.87;;;4.40;;
20122;SDS011;10222;50.848;4.336;2023-05-21T08:39:55;7.87;;;3.80;;
20122;SDS011;10222;50.848;4.336;2023-05-21T08:45:16;6.93;;;4.13;;
20122;SDS011;10222;50.848;4.336;2023-05-21T08:47:44;6.43;;;4.00;;
20122;SDS011;10222;50.848;4.336;2023-05-21T08:50:12;6.10;;;4.17;;
20122;SDS011;10222;50.848;4.336;2023-05-21T08:52:38;6.63;;;4.30;;
20122;SDS011;10222;50.848;4.336;2023-05-21T08:55:05;6.63;;;4.60;;
20122;SDS011;10222;50.848;4.336;2023-05-21T08:57:32;7.40;;;4.33;;
20122;SDS011;10222;50.848;4.336;2023-05-21T08:59:59;6.40;;;4.30;;
20122;SDS011;10222;50.848;4.336;2023-05-21T09:02:26;7.33;;;4.37;;
20122;SDS011;10222;50.848;4.336;2023-05-21T09:04:52;7.37;;;4.53;;
20122;SDS011;10222;50.848;4.336;2023-05-21T09:07:26;6.37;;;4.33;;
20122;SDS011;10222;50.848;4.336;2023-05-21T09:12:21;6.00;;;4.60;;
20122;SDS011;10222;50.848;4.336;2023-05-21T09:14:48;6.87;;;4.53;;
20122;SDS011;10222;50.848;4.336;2023-05-21T09:17:15;7.17;;;4.80;;
20122;SDS011;10222;50.848;4.336;2023-05-21T09:22:48;8.03;;;5.30;;
20122;SDS011;10222;50.848;4.336;2023-05-21T09:25:16;9.27;;;5.10;;
20122;SDS011;10222;50.848;4.336;2023-05-21T09:27:42;8.87;;;4.50;;
20122;SDS011;10222;50.848;4.336;2023-05-21T09:30:09;7.83;;;4.80;;
20122;SDS011;10222;50.848;4.336;2023-05-21T09:32:36;9.17;;;5.73;;
20122;SDS011;10222;50.848;4.336;2023-05-21T09:35:20;10.10;;;5.40;;
20122;SDS011;10222;50.848;4.336;2023-05-21T09:37:47;7.77;;;4.40;;
20122;SDS011;10222;50.848;4.336;2023-05-21T09:40:14;7.47;;;4.47;;
20122;SDS011;10222;50.848;4.336;2023-05-21T09:42:42;7.13;;;4.67;;
20122;SDS011;10222;50.848;4.336;2023-05-21T09:45:08;7.33;;;5.27;;
20122;SDS011;10222;50.848;4.336;2023-05-21T09:47:41;8.60;;;4.97;;
20122;SDS011;10222;50.848;4.336;2023-05-21T09:50:11;9.20;;;5.17;;
20122;SDS011;10222;50.848;4.336;2023-05-21T09:52:38;8.00;;;4.97;;
20122;SDS011;10222;50.848;4.336;2023-05-21T09:55:06;9.17;;;5.50;;
20122;SDS011;10222;50.848;4.336;2023-05-21T09:57:42;7.57;;;4.83;;
20122;SDS011;10222;50.848;4.336;2023-05-21T10:00:09;9.50;;;5.40;;
20122;SDS011;10222;50.848;4.336;2023-05-21T10:02:43;7.63;;;5.10;;
20122;SDS011;10222;50.848;4.336;2023-05-21T10:05:10;8.00;;;5.23;;
20122;SDS011;10222;50.848;4.336;2023-05-21T10:07:36;8.20;;;5.77;;
20122;SDS011;10222;50.848;4.336;2023-05-21T10:10:03;8.43;;;4.93;;
20122;SDS011;10222;50.848;4.336;2023-05-21T10:12:31;8.40;;;4.90;;
20122;SDS011;10222;50.848;4.336;2023-05-21T10:15:07;12.47;;;5.47;;
20122;SDS011;10222;50.848;4.336;2023-05-21T10:17:36;8.20;;;5.33;;
20122;SDS011;10222;50.848;4.336;2023-05-21T10:20:02;8.90;;;5.03;;
20122;SDS011;10222;50.848;4.336;2023-05-21T10:22:30;8.93;;;5.13;;
20122;SDS011;10222;50.848;4.336;2023-05-21T10:24:56;7.93;;;5.77;;
20122;SDS011;10222;50.848;4.336;2023-05-21T10:27:22;15.20;;;5.80;;
20122;SDS011;10222;50.848;4.336;2023-05-21T10:29:48;8.20;;;5.40;;
20122;SDS011;10222;50.848;4.336;2023-05-21T10:32:14;11.80;;;5.70;;
20122;SDS011;10222;50.848;4.336;2023-05-21T10:34:44;8.07;;;5.30;;
20122;SDS011;10222;50.848;4.336;2023-05-21T10:37:11;9.52;;;5.15;;
20122;SDS011;10222;50.848;4.336;2023-05-21T10:39:38;7.60;;;5.10;;
20122;SDS011;10222;50.848;4.336;2023-05-21T10:42:20;8.67;;;5.53;;
20122;SDS011;10222;50.848;4.336;2023-05-21T10:49:58;9.32;;;5.18;;
20122;SDS011;10222;50.848;4.336;2023-05-21T10:52:49;12.23;;;5.25;;
20122;SDS011;10222;50.848;4.336;2023-05-21T10:55:37;12.18;;;5.50;;
20122;SDS011;10222;50.848;4.336;2023-05-21T11:00:45;8.52;;;5.70;;
20122;SDS011;10222;50.848;4.336;2023-05-21T11:03:11;8.25;;;5.60;;
20122;SDS011;10222;50.848;4.336;2023-05-21T11:05:39;8.88;;;5.18;;
20122;SDS011;10222;50.848;4.336;2023-05-21T11:08:17;10.02;;;5.40;;
20122;SDS011;10222;50.848;4.336;2023-05-21T11:10:43;8.15;;;5.35;;
20122;SDS011;10222;50.848;4.336;2023-05-21T11:13:15;9.05;;;5.07;;
20122;SDS011;10222;50.848;4.336;2023-05-21T11:18:22;8.98;;;5.32;;
20122;SDS011;10222;50.848;4.336;2023-05-21T11:20:51;11.93;;;6.03;;
20122;SDS011;10222;50.848;4.336;2023-05-21T11:23:17;10.38;;;6.82;;
20122;SDS011;10222;50.848;4.336;2023-05-21T11:25:59;8.15;;;6.07;;
20122;SDS011;10222;50.848;4.336;2023-05-21T11:28:32;8.40;;;5.50;;
20122;SDS011;10222;50.848;4.336;2023-05-21T11:33:46;7.30;;;4.82;;
20122;SDS011;10222;50.848;4.336;2023-05-21T11:36:12;10.57;;;5.97;;
20122;SDS011;10222;50.848;4.336;2023-05-21T11:38:38;8.50;;;6.35;;
20122;SDS011;10222;50.848;4.336;2023-05-21T11:41:04;9.93;;;6.00;;
20122;SDS011;10222;50.848;4.336;2023-05-21T11:43:30;8.98;;;6.03;;
20122;SDS011;10222;50.848;4.336;2023-05-21T11:45:56;8.40;;;5.93;;
20122;SDS011;10222;50.848;4.336;2023-05-21T11:48:26;9.02;;;5.85;;
20122;SDS011;10222;50.848;4.336;2023-05-21T11:50:52;10.85;;;6.20;;
20122;SDS011;10222;50.848;4.336;2023-05-21T11:53:18;10.63;;;6.35;;
20122;SDS011;10222;50.848;4.336;2023-05-21T11:55:45;9.35;;;6.00;;
20122;SDS011;10222;50.848;4.336;2023-05-21T11:58:12;10.20;;;5.75;;
20122;SDS011;10222;50.848;4.336;2023-05-21T12:00:43;9.13;;;6.30;;
20122;SDS011;10222;50.848;4.336;2023-05-21T12:03:12;10.40;;;5.57;;
20122;SDS011;10222;50.848;4.336;2023-05-21T12:05:45;9.18;;;5.63;;
20122;SDS011;10222;50.848;4.336;2023-05-21T12:08:11;9.25;;;5.43;;
20122;SDS011;10222;50.848;4.336;2023-05-21T12:10:37;8.75;;;6.00;;
20122;SDS011;10222;50.848;4.336;2023-05-21T12:13:06;8.68;;;5.75;;
20122;SDS011;10222;50.848;4.336;2023-05-21T12:15:32;8.40;;;5.53;;
20122;SDS011;10222;50.848;4.336;2023-05-21T12:17:58;10.15;;;5.97;;
20122;SDS011;10222;50.848;4.336;2023-05-21T12:20:25;10.30;;;5.97;;
20122;SDS011;10222;50.848;4.336;2023-05-21T12:22:52;9.45;;;5.78;;
20122;SDS011;10222;50.848;4.336;2023-05-21T12:25:18;20.73;;;11.75;;
20122;SDS011;10222;50.848;4.336;2023-05-21T12:27:45;36.22;;;19.50;;
20122;SDS011;10222;50.848;4.336;2023-05-21T12:30:11;15.27;;;9.45;;
20122;SDS011;10222;50.848;4.336;2023-05-21T12:32:40;27.77;;;13.63;;
20122;SDS011;10222;50.848;4.336;2023-05-21T12:35:20;14.25;;;9.23;;
20122;SDS011;10222;50.848;4.336;2023-05-21T12:37:46;10.05;;;6.80;;
20122;SDS011;10222;50.848;4.336;2023-05-21T12:40:14;10.68;;;7.20;;
20122;SDS011;10222;50.848;4.336;2023-05-21T12:42:40;10.73;;;7.50;;
20122;SDS011;10222;50.848;4.336;2023-05-21T12:45:08;14.93;;;8.57;;
20122;SDS011;10222;50.848;4.336;2023-05-21T12:47:35;10.38;;;6.85;;
20122;SDS011;10222;50.848;4.336;2023-05-21T12:50:02;11.30;;;8.07;;
20122;SDS011;10222;50.848;4.336;2023-05-21T12:52:29;12.57;;;7.40;;
20122;SDS011;10222;50.848;4.336;2023-05-21T12:54:55;8.05;;;5.78;;
20122;SDS011;10222;50.848;4.336;2023-05-21T12:57:23;16.63;;;11.35;;
20122;SDS011;10222;50.848;4.336;2023-05-21T12:59:51;14.40;;;9.32;;
20122;SDS011;10222;50.848;4.336;2023-05-21T13:02:24;11.35;;;6.68;;
20122;SDS011;10222;50.848;4.336;2023-05-21T13:04:54;8.68;;;5.88;;
20122;SDS011;10222;50.848;4.336;2023-05-21T13:07:20;10.40;;;6.18;;
20122;SDS011;10222;50.848;4.336;2023-05-21T13:09:47;11.52;;;6.95;;
20122;SDS011;10222;50.848;4.336;2023-05-21T13:12:16;9.95;;;6.25;;
20122;SDS011;10222;50.848;4.336;2023-05-21T13:14:43;9.70;;;6.05;;
20122;SDS011;10222;50.848;4.336;2023-05-21T13:17:11;8.65;;;5.85;;
20122;SDS011;10222;50.848;4.336;2023-05-21T13:19:37;9.32;;;6.43;;
20122;SDS011;10222;50.848;4.336;2023-05-21T13:22:03;12.48;;;6.75;;
20122;SDS011;10222;50.848;4.336;2023-05-21T13:24:31;9.27;;;6.65;;
20122;SDS011;10222;50.848;4.336;2023-05-21T13:26:57;8.93;;;6.25;;
20122;SDS011;10222;50.848;4.336;2023-05-21T13:29:23;10.60;;;6.20;;
20122;SDS011;10222;50.848;4.336;2023-05-21T13:31:49;9.00;;;6.22;;
20122;SDS011;10222;50.848;4.336;2023-05-21T13:34:15;9.52;;;6.50;;
20122;SDS011;10222;50.848;4.336;2023-05-21T13:36:41;10.48;;;6.63;;
20122;SDS011;10222;50.848;4.336;2023-05-21T13:39:07;8.35;;;6.00;;
20122;SDS011;10222;50.848;4.336;2023-05-21T13:41:33;10.23;;;6.80;;
20122;SDS011;10222;50.848;4.336;2023-05-21T13:43:59;10.63;;;6.63;;
20122;SDS011;10222;50.848;4.336;2023-05-21T13:46:27;8.43;;;6.10;;
20122;SDS011;10222;50.848;4.336;2023-05-21T13:48:53;9.48;;;6.75;;
20122;SDS011;10222;50.848;4.336;2023-05-21T13:51:20;20.13;;;10.27;;
20122;SDS011;10222;50.848;4.336;2023-05-21T13:53:46;12.43;;;6.18;;
20122;SDS011;10222;50.848;4.336;2023-05-21T13:56:15;9.77;;;6.47;;
20122;SDS011;10222;50.848;4.336;2023-05-21T13:58:42;12.07;;;7.70;;
20122;SDS011;10222;50.848;4.336;2023-05-21T14:01:08;11.35;;;6.82;;
20122;SDS011;10222;50.848;4.336;2023-05-21T14:03:35;9.55;;;6.70;;
20122;SDS011;10222;50.848;4.336;2023-05-21T14:06:01;10.75;;;6.18;;
20122;SDS011;10222;50.848;4.336;2023-05-21T14:08:28;10.90;;;7.03;;
20122;SDS011;10222;50.848;4.336;2023-05-21T14:10:56;21.27;;;11.55;;
20122;SDS011;10222;50.848;4.336;2023-05-21T14:13:22;10.27;;;6.40;;
20122;SDS011;10222;50.848;4.336;2023-05-21T14:15:49;13.25;;;7.45;;
20122;SDS011;10222;50.848;4.336;2023-05-21T14:18:15;8.10;;;5.90;;
20122;SDS011;10222;50.848;4.336;2023-05-21T14:20:43;10.73;;;5.65;;
20122;SDS011;10222;50.848;4.336;2023-05-21T14:23:09;8.43;;;5.63;;
20122;SDS011;10222;50.848;4.336;2023-05-21T14:25:36;9.27;;;5.70;;
20122;SDS011;10222;50.848;4.336;2023-05-21T14:28:03;7.90;;;5.70;;
20122;SDS011;10222;50.848;4.336;2023-05-21T14:30:29;7.30;;;5.50;;
20122;SDS011;10222;50.848;4.336;2023-05-21T14:32:55;8.38;;;5.57;;
20122;SDS011;10222;50.848;4.336;2023-05-21T14:35:21;8.50;;;6.00;;
20122;SDS011;10222;50.848;4.336;2023-05-21T14:37:47;13.07;;;6.13;;
20122;SDS011;10222;50.848;4.336;2023-05-21T14:40:13;7.63;;;5.50;;
20122;SDS011;10222;50.848;4.336;2023-05-21T14:42:39;11.05;;;5.60;;
20122;SDS011;10222;50.848;4.336;2023-05-21T14:45:05;8.50;;;5.90;;
20122;SDS011;10222;50.848;4.336;2023-05-21T14:47:32;7.10;;;5.50;;
20122;SDS011;10222;50.848;4.336;2023-05-21T14:50:04;9.55;;;6.20;;
20122;SDS011;10222;50.848;4.336;2023-05-21T14:52:30;7.03;;;5.38;;
20122;SDS011;10222;50.848;4.336;2023-05-21T14:54:56;8.52;;;5.60;;
20122;SDS011;10222;50.848;4.336;2023-05-21T14:57:22;8.10;;;5.55;;
20122;SDS011;10222;50.848;4.336;2023-05-21T14:59:48;9.43;;;6.10;;
20122;SDS011;10222;50.848;4.336;2023-05-21T15:02:14;7.68;;;5.18;;
20122;SDS011;10222;50.848;4.336;2023-05-21T15:04:40;8.90;;;5.50;;
20122;SDS011;10222;50.848;4.336;2023-05-21T15:07:06;9.88;;;5.53;;
20122;SDS011;10222;50.848;4.336;2023-05-21T15:09:32;7.50;;;5.25;;
20122;SDS011;10222;50.848;4.336;2023-05-21T15:11:58;9.20;;;5.40;;
20122;SDS011;10222;50.848;4.336;2023-05-21T15:14:25;6.70;;;5.30;;
20122;SDS011;10222;50.848;4.336;2023-05-21T15:16:51;8.27;;;5.78;;
20122;SDS011;10222;50.848;4.336;2023-05-21T15:19:17;8.68;;;5.80;;
20122;SDS011;10222;50.848;4.336;2023-05-21T15:21:43;6.93;;;5.38;;
20122;SDS011;10222;50.848;4.336;2023-05-21T15:24:09;7.03;;;4.95;;
20122;SDS011;10222;50.848;4.336;2023-05-21T15:26:35;8.18;;;5.38;;